sensor_id;sensor_type;location;lat;lon;timestamp;temperature;humidity
2100;DHT22;1055;48.854;9.302;2023-04-19T00:00:05;11.30;99.90
2100;DHT22;1055;48.854;9.302;2023-04-19T00:02:34;10.70;99.90
2100;DHT22;1055;48.854;9.302;2023-04-19T00:05:00;11.00;99.90
2100;DHT22;1055;48.854;9.302;2023-04-19T00:07:27;11.00;99.90
2100;DHT22;1055;48.854;9.302;2023-04-19T00:09:52;11.20;99.90
2100;DHT22;1055;48.854;9.302;2023-04-19T00:12:18;11.30;99.90
2100;DHT22;1055;48.854;9.302;2023-04-19T00:14:43;11.30;99.90
2100;DHT22;1055;48.854;9.302;2023-04-19T00:17:09;11.10;99.90
2100;DHT22;1055;48.854;9.302;2023-04-19T00:19:36;11.20;99.90
2100;DHT22;1055;48.854;9.302;2023-04-19T00:22:02;11.20;99.90
2100;DHT22;1055;48.854;9.302;2023-04-19T00:24:28;11.30;99.90
2100;DHT22;1055;48.854;9.302;2023-04-19T00:26:53;11.20;99.90
2100;DHT22;1055;48.854;9.302;2023-04-19T00:29:19;11.10;99.90
2100;DHT22;1055;48.854;9.302;2023-04-19T00:31:45;11.00;99.90
2100;DHT22;1055;48.854;9.302;2023-04-19T00:34:10;11.00;99.90
2100;DHT22;1055;48.854;9.302;2023-04-19T00:36:36;10.80;99.90
2100;DHT22;1055;48.854;9.302;2023-04-19T00:39:02;10.80;99.90
2100;DHT22;1055;48.854;9.302;2023-04-19T00:41:28;10.80;99.90
2100;DHT22;1055;48.854;9.302;2023-04-19T00:43:53;10.90;99.90
2100;DHT22;1055;48.854;9.302;2023-04-19T00:46:19;10.80;99.90
2100;DHT22;1055;48.854;9.302;2023-04-19T00:48:46;10.90;99.90
2100;DHT22;1055;48.854;9.302;2023-04-19T00:51:11;10.80;99.90
2100;DHT22;1055;48.854;9.302;2023-04-19T00:53:37;10.70;99.90
2100;DHT22;1055;48.854;9.302;2023-04-19T00:56:04;10.50;99.90
2100;DHT22;1055;48.854;9.302;2023-04-19T00:58:31;10.50;99.90
2100;DHT22;1055;48.854;9.302;2023-04-19T01:00:57;10.50;99.90
2100;DHT22;1055;48.854;9.302;2023-04-19T01:03:22;10.30;99.90
2100;DHT22;1055;48.854;9.302;2023-04-19T01:05:51;10.30;99.90
2100;DHT22;1055;48.854;9.302;2023-04-19T01:08:17;10.30;99.90
2100;DHT22;1055;48.854;9.302;2023-04-19T01:10:42;10.20;99.90
2100;DHT22;1055;48.854;9.302;2023-04-19T01:13:08;10.20;99.90
2100;DHT22;1055;48.854;9.302;2023-04-19T01:15:34;10.20;99.90
2100;DHT22;1055;48.854;9.302;2023-04-19T01:18:00;10.10;99.90
2100;DHT22;1055;48.854;9.302;2023-04-19T01:20:26;9.90;99.90
2100;DHT22;1055;48.854;9.302;2023-04-19T01:22:52;10.20;99.90
2100;DHT22;1055;48.854;9.302;2023-04-19T01:25:18;10.00;99.90
2100;DHT22;1055;48.854;9.302;2023-04-19T01:27:43;10.20;99.90
2100;DHT22;1055;48.854;9.302;2023-04-19T01:30:09;10.20;99.90
2100;DHT22;1055;48.854;9.302;2023-04-19T01:32:35;10.20;99.90
2100;DHT22;1055;48.854;9.302;2023-04-19T01:35:01;10.30;99.90
2100;DHT22;1055;48.854;9.302;2023-04-19T01:37:26;10.30;99.90
2100;DHT22;1055;48.854;9.302;2023-04-19T01:39:52;10.40;99.90
2100;DHT22;1055;48.854;9.302;2023-04-19T01:42:18;10.30;99.90
2100;DHT22;1055;48.854;9.302;2023-04-19T01:44:43;10.10;99.90
2100;DHT22;1055;48.854;9.302;2023-04-19T01:47:09;10.20;99.90
2100;DHT22;1055;48.854;9.302;2023-04-19T01:49:35;10.30;99.90
2100;DHT22;1055;48.854;9.302;2023-04-19T01:52:00;10.20;99.90
2100;DHT22;1055;48.854;9.302;2023-04-19T01:54:26;10.30;99.90
2100;DHT22;1055;48.854;9.302;2023-04-19T01:56:51;10.40;99.90
2100;DHT22;1055;48.854;9.302;2023-04-19T01:59:17;10.40;99.90
2100;DHT22;1055;48.854;9.302;2023-04-19T02:01:42;10.20;99.90
2100;DHT22;1055;48.854;9.302;2023-04-19T02:04:08;10.40;99.90
2100;DHT22;1055;48.854;9.302;2023-04-19T02:06:34;10.30;99.90
2100;DHT22;1055;48.854;9.302;2023-04-19T02:08:59;10.20;99.90
2100;DHT22;1055;48.854;9.302;2023-04-19T02:11:25;10.20;99.90
2100;DHT22;1055;48.854;9.302;2023-04-19T02:13:51;10.20;99.90
2100;DHT22;1055;48.854;9.302;2023-04-19T02:16:16;10.10;99.90
2100;DHT22;1055;48.854;9.302;2023-04-19T02:18:42;10.30;99.90
2100;DHT22;1055;48.854;9.302;2023-04-19T02:21:08;10.20;99.90
2100;DHT22;1055;48.854;9.302;2023-04-19T02:23:34;10.20;99.90
2100;DHT22;1055;48.854;9.302;2023-04-19T02:26:00;10.40;99.90
2100;DHT22;1055;48.854;9.302;2023-04-19T02:28:28;10.60;99.90
2100;DHT22;1055;48.854;9.302;2023-04-19T02:30:54;10.40;99.90
2100;DHT22;1055;48.854;9.302;2023-04-19T02:33:21;10.50;99.90
2100;DHT22;1055;48.854;9.302;2023-04-19T02:35:47;10.20;99.90
2100;DHT22;1055;48.854;9.302;2023-04-19T02:38:13;10.40;99.90
2100;DHT22;1055;48.854;9.302;2023-04-19T02:40:38;10.40;99.90
2100;DHT22;1055;48.854;9.302;2023-04-19T02:43:04;10.40;99.90
2100;DHT22;1055;48.854;9.302;2023-04-19T02:45:30;10.20;99.90
2100;DHT22;1055;48.854;9.302;2023-04-19T02:47:55;10.20;99.90
2100;DHT22;1055;48.854;9.302;2023-04-19T02:50:21;10.30;99.90
2100;DHT22;1055;48.854;9.302;2023-04-19T02:52:47;10.40;99.90
2100;DHT22;1055;48.854;9.302;2023-04-19T02:55:12;10.40;99.90
2100;DHT22;1055;48.854;9.302;2023-04-19T02:57:38;10.60;99.90
2100;DHT22;1055;48.854;9.302;2023-04-19T03:00:04;10.60;99.90
2100;DHT22;1055;48.854;9.302;2023-04-19T03:02:30;10.60;99.90
2100;DHT22;1055;48.854;9.302;2023-04-19T03:04:56;10.70;99.90
2100;DHT22;1055;48.854;9.302;2023-04-19T03:07:22;10.50;99.90
2100;DHT22;1055;48.854;9.302;2023-04-19T03:09:47;10.50;99.90
2100;DHT22;1055;48.854;9.302;2023-04-19T03:12:13;10.40;99.90
2100;DHT22;1055;48.854;9.302;2023-04-19T03:14:38;10.50;99.90
2100;DHT22;1055;48.854;9.302;2023-04-19T03:17:04;10.10;99.90
2100;DHT22;1055;48.854;9.302;2023-04-19T03:19:30;10.20;99.90
2100;DHT22;1055;48.854;9.302;2023-04-19T03:21:56;10.20;99.90
2100;DHT22;1055;48.854;9.302;2023-04-19T03:24:29;10.20;99.90
2100;DHT22;1055;48.854;9.302;2023-04-19T03:26:55;10.10;99.90
2100;DHT22;1055;48.854;9.302;2023-04-19T03:29:21;10.30;99.90
2100;DHT22;1055;48.854;9.302;2023-04-19T03:31:47;10.20;99.90
2100;DHT22;1055;48.854;9.302;2023-04-19T03:34:12;10.40;99.90
2100;DHT22;1055;48.854;9.302;2023-04-19T03:36:39;10.50;99.90
2100;DHT22;1055;48.854;9.302;2023-04-19T03:39:05;10.70;99.90
2100;DHT22;1055;48.854;9.302;2023-04-19T03:41:31;10.80;99.90
2100;DHT22;1055;48.854;9.302;2023-04-19T03:43:56;10.80;99.90
2100;DHT22;1055;48.854;9.302;2023-04-19T03:46:22;10.90;99.90
2100;DHT22;1055;48.854;9.302;2023-04-19T03:48:49;10.90;99.90
2100;DHT22;1055;48.854;9.302;2023-04-19T03:51:15;10.90;99.90
2100;DHT22;1055;48.854;9.302;2023-04-19T03:53:41;10.80;99.90
2100;DHT22;1055;48.854;9.302;2023-04-19T03:56:07;10.90;99.90
2100;DHT22;1055;48.854;9.302;2023-04-19T03:58:33;10.70;99.90
2100;DHT22;1055;48.854;9.302;2023-04-19T04:00:59;10.60;99.90
2100;DHT22;1055;48.854;9.302;2023-04-19T04:03:25;10.60;99.90
2100;DHT22;1055;48.854;9.302;2023-04-19T04:05:51;10.70;99.90
2100;DHT22;1055;48.854;9.302;2023-04-19T04:08:17;10.60;99.90
2100;DHT22;1055;48.854;9.302;2023-04-19T04:10:42;10.50;99.90
2100;DHT22;1055;48.854;9.302;2023-04-19T04:13:08;10.40;99.90
2100;DHT22;1055;48.854;9.302;2023-04-19T04:15:33;10.50;99.90
2100;DHT22;1055;48.854;9.302;2023-04-19T04:17:59;10.40;99.90
2100;DHT22;1055;48.854;9.302;2023-04-19T04:20:25;10.40;99.90
2100;DHT22;1055;48.854;9.302;2023-04-19T04:22:50;10.50;99.90
2100;DHT22;1055;48.854;9.302;2023-04-19T04:25:17;10.50;99.90
2100;DHT22;1055;48.854;9.302;2023-04-19T04:27:43;10.10;99.90
2100;DHT22;1055;48.854;9.302;2023-04-19T04:30:09;10.20;99.90
2100;DHT22;1055;48.854;9.302;2023-04-19T04:32:36;9.80;99.90
2100;DHT22;1055;48.854;9.302;2023-04-19T04:35:02;9.90;99.90
2100;DHT22;1055;48.854;9.302;2023-04-19T04:37:28;9.50;99.90
2100;DHT22;1055;48.854;9.302;2023-04-19T04:39:55;9.60;99.90
2100;DHT22;1055;48.854;9.302;2023-04-19T04:42:21;9.60;99.90
2100;DHT22;1055;48.854;9.302;2023-04-19T04:44:47;9.70;99.90
2100;DHT22;1055;48.854;9.302;2023-04-19T04:47:16;9.90;99.90
2100;DHT22;1055;48.854;9.302;2023-04-19T04:49:42;9.40;99.90
2100;DHT22;1055;48.854;9.302;2023-04-19T04:52:08;9.60;99.90
2100;DHT22;1055;48.854;9.302;2023-04-19T04:54:34;9.60;99.90
2100;DHT22;1055;48.854;9.302;2023-04-19T04:56:59;9.60;99.90
2100;DHT22;1055;48.854;9.302;2023-04-19T04:59:26;9.70;99.90
2100;DHT22;1055;48.854;9.302;2023-04-19T05:01:51;9.70;99.90
2100;DHT22;1055;48.854;9.302;2023-04-19T05:04:18;9.60;99.90
2100;DHT22;1055;48.854;9.302;2023-04-19T05:06:43;9.50;99.90
2100;DHT22;1055;48.854;9.302;2023-04-19T05:09:10;9.70;99.90
2100;DHT22;1055;48.854;9.302;2023-04-19T05:11:35;9.70;99.90
2100;DHT22;1055;48.854;9.302;2023-04-19T05:14:02;9.70;99.90
2100;DHT22;1055;48.854;9.302;2023-04-19T05:16:27;9.40;99.90
2100;DHT22;1055;48.854;9.302;2023-04-19T05:18:53;9.40;99.90
2100;DHT22;1055;48.854;9.302;2023-04-19T05:21:19;9.60;99.90
2100;DHT22;1055;48.854;9.302;2023-04-19T05:23:45;9.70;99.90
2100;DHT22;1055;48.854;9.302;2023-04-19T05:26:10;9.70;99.90
2100;DHT22;1055;48.854;9.302;2023-04-19T05:28:37;9.80;99.90
2100;DHT22;1055;48.854;9.302;2023-04-19T05:31:03;9.60;99.90
2100;DHT22;1055;48.854;9.302;2023-04-19T05:33:29;9.80;99.90
2100;DHT22;1055;48.854;9.302;2023-04-19T05:35:55;9.80;99.90
2100;DHT22;1055;48.854;9.302;2023-04-19T05:38:20;9.90;99.90
2100;DHT22;1055;48.854;9.302;2023-04-19T05:40:46;9.90;99.90
2100;DHT22;1055;48.854;9.302;2023-04-19T05:43:12;9.90;99.90
2100;DHT22;1055;48.854;9.302;2023-04-19T05:45:37;9.80;99.90
2100;DHT22;1055;48.854;9.302;2023-04-19T05:48:03;9.70;99.90
2100;DHT22;1055;48.854;9.302;2023-04-19T05:50:29;9.70;99.90
2100;DHT22;1055;48.854;9.302;2023-04-19T05:52:54;9.70;99.90
2100;DHT22;1055;48.854;9.302;2023-04-19T05:55:20;9.70;99.90
2100;DHT22;1055;48.854;9.302;2023-04-19T05:57:46;9.70;99.90
2100;DHT22;1055;48.854;9.302;2023-04-19T06:00:12;9.70;99.90
2100;DHT22;1055;48.854;9.302;2023-04-19T06:02:37;9.70;99.90
2100;DHT22;1055;48.854;9.302;2023-04-19T06:05:03;9.70;99.90
2100;DHT22;1055;48.854;9.302;2023-04-19T06:07:29;9.40;99.90
2100;DHT22;1055;48.854;9.302;2023-04-19T06:09:55;9.50;99.90
2100;DHT22;1055;48.854;9.302;2023-04-19T06:12:21;9.60;99.90
2100;DHT22;1055;48.854;9.302;2023-04-19T06:14:47;9.60;99.90
2100;DHT22;1055;48.854;9.302;2023-04-19T06:17:12;9.80;99.90
2100;DHT22;1055;48.854;9.302;2023-04-19T06:19:40;9.90;99.90
2100;DHT22;1055;48.854;9.302;2023-04-19T06:22:06;9.90;99.90
2100;DHT22;1055;48.854;9.302;2023-04-19T06:24:32;10.10;99.90
2100;DHT22;1055;48.854;9.302;2023-04-19T06:26:58;10.00;99.90
2100;DHT22;1055;48.854;9.302;2023-04-19T06:29:23;10.20;99.90
2100;DHT22;1055;48.854;9.302;2023-04-19T06:31:50;10.40;99.90
2100;DHT22;1055;48.854;9.302;2023-04-19T06:34:15;10.40;99.90
2100;DHT22;1055;48.854;9.302;2023-04-19T06:36:41;10.50;99.90
2100;DHT22;1055;48.854;9.302;2023-04-19T06:39:07;10.30;99.90
2100;DHT22;1055;48.854;9.302;2023-04-19T06:41:32;10.50;99.90
2100;DHT22;1055;48.854;9.302;2023-04-19T06:43:58;10.70;99.90
2100;DHT22;1055;48.854;9.302;2023-04-19T06:46:24;10.70;99.90
2100;DHT22;1055;48.854;9.302;2023-04-19T06:48:49;10.50;99.90
2100;DHT22;1055;48.854;9.302;2023-04-19T06:51:15;10.70;99.90
2100;DHT22;1055;48.854;9.302;2023-04-19T06:53:41;10.60;99.90
2100;DHT22;1055;48.854;9.302;2023-04-19T06:56:08;10.70;99.90
2100;DHT22;1055;48.854;9.302;2023-04-19T06:58:34;10.90;99.90
2100;DHT22;1055;48.854;9.302;2023-04-19T07:01:00;11.00;99.90
2100;DHT22;1055;48.854;9.302;2023-04-19T07:03:26;11.00;99.90
2100;DHT22;1055;48.854;9.302;2023-04-19T07:05:51;11.00;99.90
2100;DHT22;1055;48.854;9.302;2023-04-19T07:08:20;11.20;99.90
2100;DHT22;1055;48.854;9.302;2023-04-19T07:10:46;11.20;99.90
2100;DHT22;1055;48.854;9.302;2023-04-19T07:13:12;11.40;99.90
2100;DHT22;1055;48.854;9.302;2023-04-19T07:15:38;11.20;99.90
2100;DHT22;1055;48.854;9.302;2023-04-19T07:18:03;11.20;99.90
2100;DHT22;1055;48.854;9.302;2023-04-19T07:20:29;11.20;99.90
2100;DHT22;1055;48.854;9.302;2023-04-19T07:22:57;11.20;99.90
2100;DHT22;1055;48.854;9.302;2023-04-19T07:25:23;11.30;99.90
2100;DHT22;1055;48.854;9.302;2023-04-19T07:27:48;11.50;99.90
2100;DHT22;1055;48.854;9.302;2023-04-19T07:30:14;11.50;99.90
2100;DHT22;1055;48.854;9.302;2023-04-19T07:32:40;11.50;99.90
2100;DHT22;1055;48.854;9.302;2023-04-19T07:35:06;11.70;99.90
2100;DHT22;1055;48.854;9.302;2023-04-19T07:37:31;11.70;99.90
2100;DHT22;1055;48.854;9.302;2023-04-19T07:39:57;11.70;99.90
2100;DHT22;1055;48.854;9.302;2023-04-19T07:42:23;11.40;99.90
2100;DHT22;1055;48.854;9.302;2023-04-19T07:44:49;11.40;99.90
2100;DHT22;1055;48.854;9.302;2023-04-19T07:47:16;11.30;99.90
2100;DHT22;1055;48.854;9.302;2023-04-19T07:49:50;11.20;99.90
2100;DHT22;1055;48.854;9.302;2023-04-19T07:52:21;11.50;99.90
2100;DHT22;1055;48.854;9.302;2023-04-19T07:54:50;11.60;99.90
2100;DHT22;1055;48.854;9.302;2023-04-19T07:57:19;11.90;99.90
2100;DHT22;1055;48.854;9.302;2023-04-19T07:59:47;12.00;99.90
2100;DHT22;1055;48.854;9.302;2023-04-19T08:02:15;11.90;99.90
2100;DHT22;1055;48.854;9.302;2023-04-19T08:04:44;12.00;99.90
2100;DHT22;1055;48.854;9.302;2023-04-19T08:07:12;12.10;99.90
2100;DHT22;1055;48.854;9.302;2023-04-19T08:09:38;12.10;99.90
2100;DHT22;1055;48.854;9.302;2023-04-19T08:12:03;12.10;99.90
2100;DHT22;1055;48.854;9.302;2023-04-19T08:14:29;12.30;99.90
2100;DHT22;1055;48.854;9.302;2023-04-19T08:16:55;12.50;99.90
2100;DHT22;1055;48.854;9.302;2023-04-19T08:19:20;12.50;99.90
2100;DHT22;1055;48.854;9.302;2023-04-19T08:21:46;12.50;99.90
2100;DHT22;1055;48.854;9.302;2023-04-19T08:24:12;12.60;99.90
2100;DHT22;1055;48.854;9.302;2023-04-19T08:26:39;12.50;99.90
2100;DHT22;1055;48.854;9.302;2023-04-19T08:29:04;12.60;99.90
2100;DHT22;1055;48.854;9.302;2023-04-19T08:31:30;12.30;99.90
2100;DHT22;1055;48.854;9.302;2023-04-19T08:33:55;12.20;99.90
2100;DHT22;1055;48.854;9.302;2023-04-19T08:36:22;12.20;99.90
2100;DHT22;1055;48.854;9.302;2023-04-19T08:38:48;12.30;99.90
2100;DHT22;1055;48.854;9.302;2023-04-19T08:41:15;12.50;99.90
2100;DHT22;1055;48.854;9.302;2023-04-19T08:43:43;12.70;99.90
2100;DHT22;1055;48.854;9.302;2023-04-19T08:46:10;12.50;99.90
2100;DHT22;1055;48.854;9.302;2023-04-19T08:48:36;12.80;99.90
2100;DHT22;1055;48.854;9.302;2023-04-19T08:51:02;12.80;99.90
2100;DHT22;1055;48.854;9.302;2023-04-19T08:53:28;12.80;99.90
2100;DHT22;1055;48.854;9.302;2023-04-19T08:55:54;12.60;99.90
2100;DHT22;1055;48.854;9.302;2023-04-19T08:58:24;12.70;99.90
2100;DHT22;1055;48.854;9.302;2023-04-19T09:00:50;12.80;99.90
2100;DHT22;1055;48.854;9.302;2023-04-19T09:03:16;12.80;99.90
2100;DHT22;1055;48.854;9.302;2023-04-19T09:05:41;12.70;99.90
2100;DHT22;1055;48.854;9.302;2023-04-19T09:08:28;12.60;99.90
2100;DHT22;1055;48.854;9.302;2023-04-19T09:13:20;12.30;99.90
2100;DHT22;1055;48.854;9.302;2023-04-19T09:15:45;11.70;99.90
2100;DHT22;1055;48.854;9.302;2023-04-19T09:18:11;12.10;99.90
2100;DHT22;1055;48.854;9.302;2023-04-19T09:20:40;11.90;99.90
2100;DHT22;1055;48.854;9.302;2023-04-19T09:23:08;11.80;99.90
2100;DHT22;1055;48.854;9.302;2023-04-19T09:25:37;12.10;99.90
2100;DHT22;1055;48.854;9.302;2023-04-19T09:28:10;12.00;99.90
2100;DHT22;1055;48.854;9.302;2023-04-19T09:30:37;12.20;99.90
2100;DHT22;1055;48.854;9.302;2023-04-19T09:33:03;12.40;99.90
2100;DHT22;1055;48.854;9.302;2023-04-19T09:35:44;12.60;99.90
2100;DHT22;1055;48.854;9.302;2023-04-19T09:38:11;12.70;99.90
2100;DHT22;1055;48.854;9.302;2023-04-19T09:40:38;12.70;99.90
2100;DHT22;1055;48.854;9.302;2023-04-19T09:43:04;12.90;99.90
2100;DHT22;1055;48.854;9.302;2023-04-19T09:45:44;13.10;99.90
2100;DHT22;1055;48.854;9.302;2023-04-19T09:48:13;12.80;99.90
2100;DHT22;1055;48.854;9.302;2023-04-19T09:50:56;13.00;99.90
2100;DHT22;1055;48.854;9.302;2023-04-19T09:53:23;13.20;99.90
2100;DHT22;1055;48.854;9.302;2023-04-19T09:55:49;13.20;99.90
2100;DHT22;1055;48.854;9.302;2023-04-19T09:58:15;13.00;99.90
2100;DHT22;1055;48.854;9.302;2023-04-19T10:00:43;13.30;99.90
2100;DHT22;1055;48.854;9.302;2023-04-19T10:03:09;12.80;99.90
2100;DHT22;1055;48.854;9.302;2023-04-19T10:05:39;12.90;99.90
2100;DHT22;1055;48.854;9.302;2023-04-19T10:08:06;13.10;99.90
2100;DHT22;1055;48.854;9.302;2023-04-19T10:10:33;12.90;99.90
2100;DHT22;1055;48.854;9.302;2023-04-19T10:13:02;13.30;99.90
2100;DHT22;1055;48.854;9.302;2023-04-19T10:15:31;13.60;99.90
2100;DHT22;1055;48.854;9.302;2023-04-19T10:17:58;13.60;99.90
2100;DHT22;1055;48.854;9.302;2023-04-19T10:20:49;13.70;99.90
2100;DHT22;1055;48.854;9.302;2023-04-19T10:23:16;13.70;99.90
2100;DHT22;1055;48.854;9.302;2023-04-19T10:25:46;13.30;99.90
2100;DHT22;1055;48.854;9.302;2023-04-19T10:28:12;13.50;99.90
2100;DHT22;1055;48.854;9.302;2023-04-19T10:31:01;13.50;99.90
2100;DHT22;1055;48.854;9.302;2023-04-19T10:33:35;13.40;99.90
2100;DHT22;1055;48.854;9.302;2023-04-19T10:36:01;13.60;99.90
2100;DHT22;1055;48.854;9.302;2023-04-19T10:38:44;13.80;99.90
2100;DHT22;1055;48.854;9.302;2023-04-19T10:41:13;13.80;99.90
2100;DHT22;1055;48.854;9.302;2023-04-19T10:44:22;13.80;99.90
2100;DHT22;1055;48.854;9.302;2023-04-19T10:49:00;13.50;99.90
2100;DHT22;1055;48.854;9.302;2023-04-19T10:51:27;13.60;99.90
2100;DHT22;1055;48.854;9.302;2023-04-19T10:53:57;13.20;99.90
2100;DHT22;1055;48.854;9.302;2023-04-19T11:11:49;13.60;99.90
2100;DHT22;1055;48.854;9.302;2023-04-19T11:14:15;13.40;99.90
2100;DHT22;1055;48.854;9.302;2023-04-19T11:16:41;13.10;99.90
2100;DHT22;1055;48.854;9.302;2023-04-19T11:19:07;13.20;99.90
2100;DHT22;1055;48.854;9.302;2023-04-19T11:21:32;12.70;99.90
2100;DHT22;1055;48.854;9.302;2023-04-19T11:24:09;12.90;99.90
2100;DHT22;1055;48.854;9.302;2023-04-19T11:26:35;12.80;99.90
2100;DHT22;1055;48.854;9.302;2023-04-19T11:29:01;12.80;99.90
2100;DHT22;1055;48.854;9.302;2023-04-19T11:31:27;12.90;99.90
2100;DHT22;1055;48.854;9.302;2023-04-19T11:33:53;12.50;99.90
2100;DHT22;1055;48.854;9.302;2023-04-19T11:36:19;12.50;99.90
2100;DHT22;1055;48.854;9.302;2023-04-19T11:38:48;12.30;99.90
2100;DHT22;1055;48.854;9.302;2023-04-19T11:41:14;12.10;99.90
2100;DHT22;1055;48.854;9.302;2023-04-19T11:43:40;12.20;99.90
2100;DHT22;1055;48.854;9.302;2023-04-19T11:46:09;11.80;99.90
2100;DHT22;1055;48.854;9.302;2023-04-19T11:48:36;12.00;99.90
2100;DHT22;1055;48.854;9.302;2023-04-19T11:51:02;12.10;99.90
2100;DHT22;1055;48.854;9.302;2023-04-19T11:53:31;12.20;99.90
2100;DHT22;1055;48.854;9.302;2023-04-19T11:56:03;12.10;99.90
2100;DHT22;1055;48.854;9.302;2023-04-19T11:58:35;12.10;99.90
2100;DHT22;1055;48.854;9.302;2023-04-19T12:01:12;12.20;99.90
2100;DHT22;1055;48.854;9.302;2023-04-19T12:06:23;11.90;99.90
2100;DHT22;1055;48.854;9.302;2023-04-19T12:08:51;11.80;99.90
2100;DHT22;1055;48.854;9.302;2023-04-19T12:11:18;11.60;99.90
2100;DHT22;1055;48.854;9.302;2023-04-19T12:13:44;11.40;99.90
2100;DHT22;1055;48.854;9.302;2023-04-19T12:16:10;11.20;99.90
2100;DHT22;1055;48.854;9.302;2023-04-19T12:18:47;11.30;99.90
2100;DHT22;1055;48.854;9.302;2023-04-19T12:21:24;10.90;99.90
2100;DHT22;1055;48.854;9.302;2023-04-19T12:23:53;10.70;99.90
2100;DHT22;1055;48.854;9.302;2023-04-19T12:26:19;10.70;99.90
2100;DHT22;1055;48.854;9.302;2023-04-19T12:28:45;10.80;99.90
2100;DHT22;1055;48.854;9.302;2023-04-19T12:31:11;11.00;99.90
2100;DHT22;1055;48.854;9.302;2023-04-19T12:33:36;10.90;99.90
2100;DHT22;1055;48.854;9.302;2023-04-19T12:36:02;11.00;99.90
2100;DHT22;1055;48.854;9.302;2023-04-19T12:38:28;10.90;99.90
2100;DHT22;1055;48.854;9.302;2023-04-19T12:40:53;10.90;99.90
2100;DHT22;1055;48.854;9.302;2023-04-19T12:43:20;11.00;99.90
2100;DHT22;1055;48.854;9.302;2023-04-19T12:45:45;11.00;99.90
2100;DHT22;1055;48.854;9.302;2023-04-19T12:48:11;10.90;99.90
2100;DHT22;1055;48.854;9.302;2023-04-19T12:50:36;10.70;99.90
2100;DHT22;1055;48.854;9.302;2023-04-19T12:53:02;10.40;99.90
2100;DHT22;1055;48.854;9.302;2023-04-19T12:55:28;10.60;99.90
2100;DHT22;1055;48.854;9.302;2023-04-19T12:57:54;10.80;99.90
2100;DHT22;1055;48.854;9.302;2023-04-19T13:00:19;10.60;99.90
2100;DHT22;1055;48.854;9.302;2023-04-19T13:02:45;10.70;99.90
2100;DHT22;1055;48.854;9.302;2023-04-19T13:05:12;10.70;99.90
2100;DHT22;1055;48.854;9.302;2023-04-19T13:07:38;10.70;99.90
2100;DHT22;1055;48.854;9.302;2023-04-19T13:10:04;10.60;99.90
2100;DHT22;1055;48.854;9.302;2023-04-19T13:12:30;10.60;99.90
2100;DHT22;1055;48.854;9.302;2023-04-19T13:14:56;10.70;99.90
2100;DHT22;1055;48.854;9.302;2023-04-19T13:17:21;11.00;99.90
2100;DHT22;1055;48.854;9.302;2023-04-19T13:19:47;11.20;99.90
2100;DHT22;1055;48.854;9.302;2023-04-19T13:22:13;11.20;99.90
2100;DHT22;1055;48.854;9.302;2023-04-19T13:24:39;10.90;99.90
2100;DHT22;1055;48.854;9.302;2023-04-19T13:27:04;10.70;99.90
2100;DHT22;1055;48.854;9.302;2023-04-19T13:29:30;11.00;99.90
2100;DHT22;1055;48.854;9.302;2023-04-19T13:31:56;11.00;99.90
2100;DHT22;1055;48.854;9.302;2023-04-19T13:34:21;11.00;99.90
2100;DHT22;1055;48.854;9.302;2023-04-19T13:36:47;11.00;99.90
2100;DHT22;1055;48.854;9.302;2023-04-19T13:39:12;11.20;99.90
2100;DHT22;1055;48.854;9.302;2023-04-19T13:41:38;11.30;99.90
2100;DHT22;1055;48.854;9.302;2023-04-19T13:44:04;11.20;99.90
2100;DHT22;1055;48.854;9.302;2023-04-19T13:46:29;11.00;99.90
2100;DHT22;1055;48.854;9.302;2023-04-19T13:48:55;11.20;99.90
2100;DHT22;1055;48.854;9.302;2023-04-19T13:51:20;11.00;99.90
2100;DHT22;1055;48.854;9.302;2023-04-19T13:53:46;11.30;99.90
2100;DHT22;1055;48.854;9.302;2023-04-19T13:56:12;11.10;99.90
2100;DHT22;1055;48.854;9.302;2023-04-19T13:58:38;11.30;99.90
2100;DHT22;1055;48.854;9.302;2023-04-19T14:01:03;11.70;99.90
2100;DHT22;1055;48.854;9.302;2023-04-19T14:03:30;11.70;99.90
2100;DHT22;1055;48.854;9.302;2023-04-19T14:05:56;12.00;99.90
2100;DHT22;1055;48.854;9.302;2023-04-19T14:08:23;12.30;99.90
2100;DHT22;1055;48.854;9.302;2023-04-19T14:10:55;12.40;99.90
2100;DHT22;1055;48.854;9.302;2023-04-19T14:13:26;12.80;99.90
2100;DHT22;1055;48.854;9.302;2023-04-19T14:15:53;12.70;99.90
2100;DHT22;1055;48.854;9.302;2023-04-19T14:18:23;12.40;99.90
2100;DHT22;1055;48.854;9.302;2023-04-19T14:20:51;12.10;99.90
2100;DHT22;1055;48.854;9.302;2023-04-19T14:23:17;12.70;99.90
2100;DHT22;1055;48.854;9.302;2023-04-19T14:25:43;13.20;99.90
2100;DHT22;1055;48.854;9.302;2023-04-19T14:28:09;13.60;99.90
2100;DHT22;1055;48.854;9.302;2023-04-19T14:30:37;13.80;99.90
2100;DHT22;1055;48.854;9.302;2023-04-19T14:33:03;13.30;99.90
2100;DHT22;1055;48.854;9.302;2023-04-19T14:35:29;13.10;99.90
2100;DHT22;1055;48.854;9.302;2023-04-19T14:37:55;12.60;99.90
2100;DHT22;1055;48.854;9.302;2023-04-19T14:40:20;12.90;99.90
2100;DHT22;1055;48.854;9.302;2023-04-19T14:42:48;13.10;99.90
2100;DHT22;1055;48.854;9.302;2023-04-19T14:45:13;13.20;99.90
2100;DHT22;1055;48.854;9.302;2023-04-19T14:47:39;13.20;99.90
2100;DHT22;1055;48.854;9.302;2023-04-19T14:50:05;13.10;99.90
2100;DHT22;1055;48.854;9.302;2023-04-19T14:52:31;13.00;99.90
2100;DHT22;1055;48.854;9.302;2023-04-19T14:54:57;13.10;99.90
2100;DHT22;1055;48.854;9.302;2023-04-19T14:57:24;13.00;99.90
2100;DHT22;1055;48.854;9.302;2023-04-19T14:59:54;12.50;99.90
2100;DHT22;1055;48.854;9.302;2023-04-19T15:02:23;12.70;99.90
2100;DHT22;1055;48.854;9.302;2023-04-19T15:04:49;12.60;99.90
2100;DHT22;1055;48.854;9.302;2023-04-19T15:07:14;12.90;99.90
2100;DHT22;1055;48.854;9.302;2023-04-19T15:09:40;12.90;99.90
2100;DHT22;1055;48.854;9.302;2023-04-19T15:12:06;13.20;99.90
2100;DHT22;1055;48.854;9.302;2023-04-19T15:14:32;13.80;99.90
2100;DHT22;1055;48.854;9.302;2023-04-19T15:16:57;14.00;99.90
2100;DHT22;1055;48.854;9.302;2023-04-19T15:19:23;13.80;99.90
2100;DHT22;1055;48.854;9.302;2023-04-19T15:21:48;14.70;99.90
2100;DHT22;1055;48.854;9.302;2023-04-19T15:24:14;13.40;99.90
2100;DHT22;1055;48.854;9.302;2023-04-19T15:26:40;13.70;99.90
2100;DHT22;1055;48.854;9.302;2023-04-19T15:29:05;13.50;99.90
2100;DHT22;1055;48.854;9.302;2023-04-19T15:31:31;13.60;99.90
2100;DHT22;1055;48.854;9.302;2023-04-19T15:34:00;14.10;99.90
2100;DHT22;1055;48.854;9.302;2023-04-19T15:36:27;13.40;99.90
2100;DHT22;1055;48.854;9.302;2023-04-19T15:38:53;12.50;99.90
2100;DHT22;1055;48.854;9.302;2023-04-19T15:41:18;12.80;99.90
2100;DHT22;1055;48.854;9.302;2023-04-19T15:43:44;13.10;99.90
2100;DHT22;1055;48.854;9.302;2023-04-19T15:46:13;13.30;99.90
2100;DHT22;1055;48.854;9.302;2023-04-19T15:48:39;13.60;99.90
2100;DHT22;1055;48.854;9.302;2023-04-19T15:51:05;13.80;99.90
2100;DHT22;1055;48.854;9.302;2023-04-19T15:53:32;13.70;99.90
2100;DHT22;1055;48.854;9.302;2023-04-19T15:55:58;13.80;99.90
2100;DHT22;1055;48.854;9.302;2023-04-19T15:58:24;13.10;99.90
2100;DHT22;1055;48.854;9.302;2023-04-19T16:00:49;13.60;99.90
2100;DHT22;1055;48.854;9.302;2023-04-19T16:03:15;14.70;99.90
2100;DHT22;1055;48.854;9.302;2023-04-19T16:05:41;14.70;99.90
2100;DHT22;1055;48.854;9.302;2023-04-19T16:08:08;15.30;99.90
2100;DHT22;1055;48.854;9.302;2023-04-19T16:10:35;15.60;98.50
2100;DHT22;1055;48.854;9.302;2023-04-19T16:13:02;16.00;86.60
2100;DHT22;1055;48.854;9.302;2023-04-19T16:15:28;16.40;73.50
2100;DHT22;1055;48.854;9.302;2023-04-19T16:17:54;16.40;66.50
2100;DHT22;1055;48.854;9.302;2023-04-19T16:20:20;17.00;65.70
2100;DHT22;1055;48.854;9.302;2023-04-19T16:22:46;17.40;64.20